createdAt,value
2023-04-15T00:04:41.456Z,0.39
2023-04-15T00:09:43.492Z,0.35
2023-04-15T00:14:45.445Z,0.26
2023-04-15T00:19:47.346Z,0.21
2023-04-15T00:24:49.354Z,0.12
2023-04-15T00:29:51.213Z,0.13
2023-04-15T00:34:53.127Z,0.08
2023-04-15T00:39:55.047Z,0.04
2023-04-15T00:44:56.920Z,-0.03
2023-04-15T00:49:58.819Z,-0.07
2023-04-15T00:55:00.871Z,-0.08
2023-04-15T01:00:02.856Z,-0.17
2023-04-15T01:05:05.668Z,-0.18
2023-04-15T01:10:08.129Z,-0.20
2023-04-15T01:15:10.502Z,-0.25
2023-04-15T01:20:12.529Z,-0.28
2023-04-15T01:25:19.648Z,-0.30
2023-04-15T01:30:21.597Z,-0.36
2023-04-15T01:35:23.600Z,-0.38
2023-04-15T01:40:25.395Z,-0.43
2023-04-15T01:45:28.848Z,-0.45
2023-04-15T01:50:32.044Z,-0.46
2023-04-15T01:55:35.237Z,-0.53
2023-04-15T02:00:38.453Z,-0.55
2023-04-15T02:05:41.500Z,-0.64
2023-04-15T02:10:44.680Z,-0.61
2023-04-15T02:15:51.056Z,-0.61
2023-04-15T02:20:54.174Z,-0.66
2023-04-15T02:25:57.242Z,-0.66
2023-04-15T02:31:00.277Z,-0.72
2023-04-15T02:36:03.547Z,-0.73
2023-04-15T02:41:06.705Z,-0.66
2023-04-15T02:46:09.869Z,-0.71
2023-04-15T02:51:16.822Z,-0.74
2023-04-15T02:56:20.023Z,-0.68
2023-04-15T03:01:23.177Z,-0.63
2023-04-15T03:06:26.436Z,-0.58
2023-04-15T03:11:29.858Z,-0.65
2023-04-15T03:16:32.919Z,-0.64
2023-04-15T03:21:36.093Z,-0.66
2023-04-15T03:26:39.205Z,-0.51
2023-04-15T03:31:42.391Z,-0.50
2023-04-15T03:36:46.053Z,-0.46
2023-04-15T03:41:49.223Z,-0.44
2023-04-15T03:46:52.429Z,-0.25
2023-04-15T03:51:55.634Z,-0.11
2023-04-15T03:56:58.709Z,-0.08
2023-04-15T04:02:01.875Z,0.03
2023-04-15T04:07:05.019Z,-0.01
2023-04-15T04:12:08.222Z,-0.04
2023-04-15T04:17:11.459Z,0.17
2023-04-15T04:22:14.694Z,0.09
2023-04-15T04:27:18.014Z,0.12
2023-04-15T04:32:21.104Z,0.07
2023-04-15T04:37:24.422Z,0.28
2023-04-15T04:42:28.925Z,0.55
2023-04-15T04:47:32.146Z,0.88
2023-04-15T04:52:35.315Z,0.78
2023-04-15T04:57:38.433Z,0.74
2023-04-15T05:02:42.414Z,1.02
2023-04-15T05:07:46.466Z,1.17
2023-04-15T05:12:49.704Z,1.29
2023-04-15T05:17:52.872Z,1.12
2023-04-15T05:22:56.122Z,1.37
2023-04-15T05:27:59.228Z,1.72
2023-04-15T05:33:02.362Z,2.09
2023-04-15T05:38:06.056Z,2.77
2023-04-15T05:43:09.258Z,3.22
2023-04-15T05:48:12.421Z,3.43
2023-04-15T05:53:15.479Z,3.64
2023-04-15T05:58:18.570Z,3.85
2023-04-15T06:03:21.698Z,3.45
2023-04-15T06:08:24.814Z,3.69
2023-04-15T06:13:27.957Z,4.60
2023-04-15T06:18:31.055Z,5.34
2023-04-15T06:23:36.974Z,5.21
2023-04-15T06:28:40.027Z,6.68
2023-04-15T06:33:43.096Z,8.00
2023-04-15T06:38:46.186Z,7.60
2023-04-15T06:43:49.334Z,7.77
2023-04-15T06:48:52.478Z,8.43
2023-04-15T06:53:55.559Z,8.90
2023-04-15T06:58:58.742Z,10.33
2023-04-15T07:04:01.882Z,13.09
2023-04-15T07:09:05.230Z,12.17
2023-04-15T07:14:08.650Z,12.25
2023-04-15T07:19:11.709Z,13.06
2023-04-15T07:24:14.844Z,15.74
2023-04-15T07:29:17.932Z,15.96
2023-04-15T07:34:20.987Z,15.32
2023-04-15T07:39:24.184Z,15.01
2023-04-15T07:44:27.595Z,13.15
2023-04-15T07:49:30.783Z,13.48
2023-04-15T07:54:33.942Z,11.12
2023-04-15T07:59:37.041Z,9.03
2023-04-15T08:04:40.403Z,8.13
2023-04-15T08:09:43.743Z,7.18
2023-04-15T08:14:46.978Z,6.47
2023-04-15T08:19:50.078Z,5.50
2023-04-15T08:24:53.186Z,5.72
2023-04-15T08:29:56.309Z,5.79
2023-04-15T08:34:59.382Z,5.38
2023-04-15T08:40:02.494Z,5.71
2023-04-15T08:45:06.028Z,5.58
2023-04-15T08:50:09.688Z,5.60
2023-04-15T08:55:12.960Z,5.39
2023-04-15T09:00:16.267Z,5.51
2023-04-15T09:05:19.332Z,5.79
2023-04-15T09:10:22.414Z,5.96
2023-04-15T09:15:25.890Z,5.99
2023-04-15T09:20:28.935Z,6.29
2023-04-15T09:25:34.301Z,6.28
2023-04-15T09:30:38.162Z,6.62
2023-04-15T09:35:41.301Z,7.16
2023-04-15T09:40:44.400Z,6.71
2023-04-15T09:45:53.283Z,6.93
2023-04-15T09:50:58.329Z,6.79
2023-04-15T09:56:01.389Z,6.94
2023-04-15T10:01:05.165Z,7.37
2023-04-15T10:06:08.315Z,6.83
2023-04-15T10:11:11.397Z,7.14
2023-04-15T10:16:20.225Z,7.60
2023-04-15T10:21:23.385Z,7.81
2023-04-15T10:26:26.419Z,7.36
2023-04-15T10:31:29.739Z,7.55
2023-04-15T10:36:33.316Z,7.54
2023-04-15T10:41:36.375Z,7.67
2023-04-15T10:46:40.765Z,7.45
2023-04-15T10:51:47.681Z,7.37
2023-04-15T10:57:23.086Z,7.89
2023-04-15T11:02:57.334Z,8.51
2023-04-15T11:08:00.481Z,8.22
2023-04-15T11:13:16.560Z,8.07
2023-04-15T11:18:20.744Z,8.69
2023-04-15T11:23:40.094Z,8.02
2023-04-15T11:28:44.900Z,8.07
2023-04-15T11:34:00.813Z,8.15
2023-04-15T11:39:05.025Z,8.01
2023-04-15T11:44:16.828Z,7.95
2023-04-15T11:49:31.900Z,8.00
2023-04-15T11:54:33.840Z,8.43
2023-04-15T11:59:45.536Z,8.79
2023-04-15T12:04:48.387Z,8.62
2023-04-15T12:09:55.644Z,8.56
2023-04-15T12:14:57.558Z,8.41
2023-04-15T12:19:59.463Z,8.51
2023-04-15T12:25:01.326Z,8.65
2023-04-15T12:30:06.858Z,8.67
2023-04-15T12:35:08.884Z,8.66
2023-04-15T12:40:11.186Z,8.72
2023-04-15T12:45:13.180Z,8.67
2023-04-15T12:50:15.140Z,8.57
2023-04-15T12:55:17.111Z,8.37
2023-04-15T13:00:19.223Z,8.46
2023-04-15T13:05:21.284Z,8.26
2023-04-15T13:10:23.168Z,8.50
2023-04-15T13:15:25.011Z,8.70
2023-04-15T13:20:27.048Z,8.83
2023-04-15T13:25:28.955Z,8.82
2023-04-15T13:30:30.952Z,8.95
2023-04-15T13:35:32.874Z,8.99
2023-04-15T13:40:34.869Z,9.05
2023-04-15T13:45:36.975Z,9.02
2023-04-15T13:50:41.124Z,8.83
2023-04-15T13:55:43.614Z,8.72
2023-04-15T14:00:45.536Z,8.67
2023-04-15T14:05:47.490Z,8.77
2023-04-15T14:10:49.560Z,8.75
2023-04-15T14:15:51.449Z,8.68
2023-04-15T14:20:53.508Z,8.64
2023-04-15T14:25:55.334Z,8.81
2023-04-15T14:30:57.300Z,8.68
2023-04-15T14:35:59.222Z,8.79
2023-04-15T14:41:01.152Z,8.83
2023-04-15T14:46:03.091Z,9.02
2023-04-15T14:51:05.105Z,9.09
2023-04-15T14:56:07.327Z,9.00
2023-04-15T15:01:09.314Z,8.97
2023-04-15T15:06:11.272Z,8.83
2023-04-15T15:11:13.191Z,8.70
2023-04-15T15:16:15.280Z,8.69
2023-04-15T15:21:17.446Z,8.62
2023-04-15T15:26:19.289Z,8.56
2023-04-15T15:31:21.814Z,8.56
2023-04-15T15:36:23.703Z,8.53
2023-04-15T15:41:26.028Z,8.51
2023-04-15T15:46:28.417Z,8.39
2023-04-15T15:51:30.517Z,8.27
2023-04-15T15:56:32.387Z,8.15
2023-04-15T16:01:34.223Z,8.09
2023-04-15T16:06:36.329Z,8.00
2023-04-15T16:11:38.220Z,7.90
2023-04-15T16:16:40.256Z,7.82
2023-04-15T16:21:43.002Z,7.74
2023-04-15T16:26:44.664Z,7.66
2023-04-15T16:31:47.540Z,7.63
2023-04-15T16:36:49.499Z,7.60
2023-04-15T16:41:51.454Z,7.55
2023-04-15T16:46:53.464Z,7.53
2023-04-15T16:51:55.377Z,7.47
2023-04-15T16:56:57.441Z,7.46
2023-04-15T17:01:59.496Z,7.45
2023-04-15T17:07:01.452Z,7.38
2023-04-15T17:12:03.939Z,7.35
2023-04-15T17:17:06.266Z,7.34
2023-04-15T17:22:12.743Z,7.31
2023-04-15T17:27:18.043Z,7.28
2023-04-15T17:32:21.493Z,7.23
2023-04-15T17:37:43.354Z,7.20
2023-04-15T17:43:05.125Z,7.16
2023-04-15T17:48:27.083Z,7.11
2023-04-15T17:53:48.909Z,7.07
2023-04-15T17:59:10.768Z,7.04
2023-04-15T18:04:32.827Z,6.94
2023-04-15T18:09:54.644Z,6.88
2023-04-15T18:15:16.522Z,6.78
2023-04-15T18:20:38.315Z,6.66
2023-04-15T18:25:40.779Z,6.64
2023-04-15T18:30:42.618Z,6.52
2023-04-15T18:35:44.560Z,6.49
2023-04-15T18:40:46.395Z,6.39
2023-04-15T18:45:48.325Z,6.31
2023-04-15T18:50:50.237Z,6.22
2023-04-15T18:55:52.214Z,6.18
2023-04-15T19:00:54.176Z,6.13
2023-04-15T19:05:56.708Z,6.08
2023-04-15T19:10:58.704Z,6.07
2023-04-15T19:16:00.563Z,6.01
2023-04-15T19:21:02.461Z,5.98
2023-04-15T19:26:04.278Z,5.95
2023-04-15T19:31:06.236Z,5.90
2023-04-15T19:36:08.115Z,5.86
2023-04-15T19:41:10.045Z,5.86
2023-04-15T19:46:12.063Z,5.78
2023-04-15T19:51:13.970Z,5.77
2023-04-15T19:56:16.052Z,5.72
2023-04-15T20:01:17.969Z,5.69
2023-04-15T20:06:19.959Z,5.69
2023-04-15T20:11:21.899Z,5.65
2023-04-15T20:16:24.037Z,5.61
2023-04-15T20:21:25.953Z,5.62
2023-04-15T20:26:27.844Z,5.59
2023-04-15T20:31:29.854Z,5.54
2023-04-15T20:36:31.999Z,5.52
2023-04-15T20:41:33.910Z,5.51
2023-04-15T20:46:35.871Z,5.42
2023-04-15T20:51:37.900Z,5.39
2023-04-15T20:56:39.976Z,5.37
2023-04-15T21:01:41.946Z,5.29
2023-04-15T21:06:43.868Z,5.21
2023-04-15T21:16:55.080Z,5.18
2023-04-15T21:21:56.971Z,5.13
2023-04-15T21:26:58.841Z,5.07
2023-04-15T21:32:00.721Z,5.06
2023-04-15T21:37:02.816Z,5.06
2023-04-15T21:42:04.828Z,5.00
2023-04-15T21:47:06.688Z,4.97
2023-04-15T21:52:08.731Z,4.98
2023-04-15T21:57:10.588Z,4.96
2023-04-15T22:02:12.482Z,4.95
2023-04-15T22:07:14.380Z,4.95
2023-04-15T22:12:16.332Z,4.90
2023-04-15T22:17:18.180Z,4.87
2023-04-15T22:22:20.111Z,4.82
2023-04-15T22:27:28.645Z,4.85
2023-04-15T22:32:30.566Z,4.83
2023-04-15T22:37:33.082Z,4.85
2023-04-15T22:42:35.186Z,4.81
2023-04-15T22:47:37.073Z,4.84
2023-04-15T22:52:39.083Z,4.80
2023-04-15T22:57:41.007Z,4.78
2023-04-15T23:02:42.898Z,4.73
2023-04-15T23:07:44.811Z,4.70
2023-04-15T23:12:46.861Z,4.64
2023-04-15T23:17:48.929Z,4.62
2023-04-15T23:22:50.917Z,4.58
2023-04-15T23:27:52.793Z,4.58
2023-04-15T23:32:54.597Z,4.55
2023-04-15T23:37:56.504Z,4.53
2023-04-15T23:42:58.523Z,4.47
2023-04-15T23:48:00.572Z,4.49
2023-04-15T23:53:02.531Z,4.46
2023-04-15T23:58:04.447Z,4.41
